KMDW/MDW METAR and TAF weather

Enter ICAO airport designator
Station Type Date Time Source
KMDW METAR 2021/03/01 09:53 UTC NOAA

KMDW 010953Z 29007KT 10SM CLR M02/M06 A3006 RMK AO2 SLP188 T10171061 $


Station Type Date Time Source
KMDW Decoded METAR 2021/03/01 09:53 UTC NOAA

CHICAGO MIDWAY AIRPORT, IL, United States (KMDW) 41-47N 087-45W 188M
Mar 01, 2021 - 04:53 AM EST / 2021.03.01 0953 UTC
Wind: from the WNW (290 degrees) at 8 MPH (7 KT):0
Visibility: 10 mile(s):0
Sky conditions: clear
Temperature: 28.9 F (-1.7 C)
Windchill: 21 F (-6 C):1
Dew Point: 21.0 F (-6.1 C)
Relative Humidity: 71%
Pressure (altimeter): 30.06 in. Hg (1017 hPa)
ob: KMDW 010953Z 29007KT 10SM CLR M02/M06 A3006 RMK AO2 SLP188 T10171061
cycle: 10

Station Type Date Time Source
KMDW TAF 2021/03/01 09:39 UTC NOAA

TAF
AMD KMDW 010837Z 0109/0212 30010KT P6SM SKC
FM011400 33013KT P6SM BKN035
FM012100 33009KT P6SM SKC
FM020400 35003KT P6SM SKC

Example: see airport list